sensor_id;sensor_type;location;lat;lon;timestamp;temperature;humidity
7117;DHT22;3600;48.568;7.870;2023-04-25T00:02:11;10.40;99.90
7117;DHT22;3600;48.568;7.870;2023-04-25T00:04:39;10.40;99.90
7117;DHT22;3600;48.568;7.870;2023-04-25T00:07:06;10.40;99.90
7117;DHT22;3600;48.568;7.870;2023-04-25T00:09:33;10.30;99.90
7117;DHT22;3600;48.568;7.870;2023-04-25T00:12:00;10.30;99.90
7117;DHT22;3600;48.568;7.870;2023-04-25T00:14:28;10.40;99.90
7117;DHT22;3600;48.568;7.870;2023-04-25T00:16:55;10.30;99.90
7117;DHT22;3600;48.568;7.870;2023-04-25T00:19:22;10.20;99.90
7117;DHT22;3600;48.568;7.870;2023-04-25T00:21:49;10.20;99.90
7117;DHT22;3600;48.568;7.870;2023-04-25T00:24:16;10.10;99.90
7117;DHT22;3600;48.568;7.870;2023-04-25T00:26:43;10.20;99.90
7117;DHT22;3600;48.568;7.870;2023-04-25T00:29:09;10.20;99.90
7117;DHT22;3600;48.568;7.870;2023-04-25T00:31:36;10.10;99.90
7117;DHT22;3600;48.568;7.870;2023-04-25T00:34:03;10.10;99.90
7117;DHT22;3600;48.568;7.870;2023-04-25T00:36:30;10.00;99.90
7117;DHT22;3600;48.568;7.870;2023-04-25T00:38:57;10.10;99.90
7117;DHT22;3600;48.568;7.870;2023-04-25T00:41:25;10.10;99.90
7117;DHT22;3600;48.568;7.870;2023-04-25T00:43:54;10.10;99.90
7117;DHT22;3600;48.568;7.870;2023-04-25T00:46:21;10.20;99.90
7117;DHT22;3600;48.568;7.870;2023-04-25T00:48:48;10.20;99.90
7117;DHT22;3600;48.568;7.870;2023-04-25T00:51:19;10.10;99.90
7117;DHT22;3600;48.568;7.870;2023-04-25T00:53:48;10.20;99.90
7117;DHT22;3600;48.568;7.870;2023-04-25T00:56:16;10.10;99.90
7117;DHT22;3600;48.568;7.870;2023-04-25T00:58:43;9.90;99.90
7117;DHT22;3600;48.568;7.870;2023-04-25T01:01:11;9.60;99.90
7117;DHT22;3600;48.568;7.870;2023-04-25T01:03:39;9.30;99.90
7117;DHT22;3600;48.568;7.870;2023-04-25T01:06:10;9.50;99.90
7117;DHT22;3600;48.568;7.870;2023-04-25T01:08:39;9.70;99.90
7117;DHT22;3600;48.568;7.870;2023-04-25T01:11:06;9.50;99.90
7117;DHT22;3600;48.568;7.870;2023-04-25T01:13:34;9.60;99.90
7117;DHT22;3600;48.568;7.870;2023-04-25T01:16:02;9.80;99.90
7117;DHT22;3600;48.568;7.870;2023-04-25T01:18:29;9.90;99.90
7117;DHT22;3600;48.568;7.870;2023-04-25T01:21:02;9.90;99.90
7117;DHT22;3600;48.568;7.870;2023-04-25T01:23:32;9.90;99.90
7117;DHT22;3600;48.568;7.870;2023-04-25T01:26:00;9.80;99.90
7117;DHT22;3600;48.568;7.870;2023-04-25T01:28:28;9.80;99.90
7117;DHT22;3600;48.568;7.870;2023-04-25T01:30:55;9.80;99.90
7117;DHT22;3600;48.568;7.870;2023-04-25T01:33:22;9.80;99.90
7117;DHT22;3600;48.568;7.870;2023-04-25T01:35:49;9.80;99.90
7117;DHT22;3600;48.568;7.870;2023-04-25T01:38:16;9.60;99.90
7117;DHT22;3600;48.568;7.870;2023-04-25T01:40:45;9.50;99.90
7117;DHT22;3600;48.568;7.870;2023-04-25T01:43:12;9.50;99.90
7117;DHT22;3600;48.568;7.870;2023-04-25T01:45:41;9.50;99.90
7117;DHT22;3600;48.568;7.870;2023-04-25T01:48:10;9.40;99.90
7117;DHT22;3600;48.568;7.870;2023-04-25T01:50:38;9.40;99.90
7117;DHT22;3600;48.568;7.870;2023-04-25T01:53:05;9.50;99.90
7117;DHT22;3600;48.568;7.870;2023-04-25T01:55:31;9.50;99.90
7117;DHT22;3600;48.568;7.870;2023-04-25T01:57:58;9.40;99.90
7117;DHT22;3600;48.568;7.870;2023-04-25T02:00:27;9.30;99.90
7117;DHT22;3600;48.568;7.870;2023-04-25T02:02:59;9.30;99.90
7117;DHT22;3600;48.568;7.870;2023-04-25T02:05:27;9.30;99.90
7117;DHT22;3600;48.568;7.870;2023-04-25T02:07:53;9.30;99.90
7117;DHT22;3600;48.568;7.870;2023-04-25T02:10:20;9.20;99.90
7117;DHT22;3600;48.568;7.870;2023-04-25T02:12:47;9.20;99.90
7117;DHT22;3600;48.568;7.870;2023-04-25T02:15:14;9.20;99.90
7117;DHT22;3600;48.568;7.870;2023-04-25T02:17:40;9.40;99.90
7117;DHT22;3600;48.568;7.870;2023-04-25T02:20:08;9.40;99.90
7117;DHT22;3600;48.568;7.870;2023-04-25T02:22:34;9.30;99.90
7117;DHT22;3600;48.568;7.870;2023-04-25T02:25:05;9.20;99.90
7117;DHT22;3600;48.568;7.870;2023-04-25T02:27:32;9.00;99.90
7117;DHT22;3600;48.568;7.870;2023-04-25T02:29:58;9.00;99.90
7117;DHT22;3600;48.568;7.870;2023-04-25T02:32:25;8.90;99.90
7117;DHT22;3600;48.568;7.870;2023-04-25T02:34:52;8.90;99.90
7117;DHT22;3600;48.568;7.870;2023-04-25T02:37:19;8.90;99.90
7117;DHT22;3600;48.568;7.870;2023-04-25T02:39:46;8.80;99.90
7117;DHT22;3600;48.568;7.870;2023-04-25T02:42:13;8.80;99.90
7117;DHT22;3600;48.568;7.870;2023-04-25T02:44:39;8.90;99.90
7117;DHT22;3600;48.568;7.870;2023-04-25T02:47:06;8.90;99.90
7117;DHT22;3600;48.568;7.870;2023-04-25T02:49:33;8.90;99.90
7117;DHT22;3600;48.568;7.870;2023-04-25T02:52:00;8.90;99.90
7117;DHT22;3600;48.568;7.870;2023-04-25T02:54:27;8.90;99.90
7117;DHT22;3600;48.568;7.870;2023-04-25T02:56:54;9.00;99.90
7117;DHT22;3600;48.568;7.870;2023-04-25T02:59:21;8.90;99.90
7117;DHT22;3600;48.568;7.870;2023-04-25T03:01:47;9.00;99.90
7117;DHT22;3600;48.568;7.870;2023-04-25T03:04:14;9.00;99.90
7117;DHT22;3600;48.568;7.870;2023-04-25T03:06:41;9.10;99.90
7117;DHT22;3600;48.568;7.870;2023-04-25T03:09:08;9.10;99.90
7117;DHT22;3600;48.568;7.870;2023-04-25T03:11:35;9.00;99.90
7117;DHT22;3600;48.568;7.870;2023-04-25T03:14:01;9.10;99.90
7117;DHT22;3600;48.568;7.870;2023-04-25T03:16:28;9.30;99.90
7117;DHT22;3600;48.568;7.870;2023-04-25T03:18:56;9.30;99.90
7117;DHT22;3600;48.568;7.870;2023-04-25T03:21:23;9.10;99.90
7117;DHT22;3600;48.568;7.870;2023-04-25T03:23:50;9.10;99.90
7117;DHT22;3600;48.568;7.870;2023-04-25T03:26:18;9.10;99.90
7117;DHT22;3600;48.568;7.870;2023-04-25T03:28:44;9.20;99.90
7117;DHT22;3600;48.568;7.870;2023-04-25T03:31:11;9.10;99.90
7117;DHT22;3600;48.568;7.870;2023-04-25T03:33:38;9.00;99.90
7117;DHT22;3600;48.568;7.870;2023-04-25T03:36:05;9.00;99.90
7117;DHT22;3600;48.568;7.870;2023-04-25T03:38:32;9.10;99.90
7117;DHT22;3600;48.568;7.870;2023-04-25T03:40:59;9.10;99.90
7117;DHT22;3600;48.568;7.870;2023-04-25T03:43:25;9.00;99.90
7117;DHT22;3600;48.568;7.870;2023-04-25T03:45:52;9.00;99.90
7117;DHT22;3600;48.568;7.870;2023-04-25T03:48:19;8.90;99.90
7117;DHT22;3600;48.568;7.870;2023-04-25T03:50:52;8.80;99.90
7117;DHT22;3600;48.568;7.870;2023-04-25T03:53:19;8.80;99.90
7117;DHT22;3600;48.568;7.870;2023-04-25T03:55:46;9.00;99.90
7117;DHT22;3600;48.568;7.870;2023-04-25T03:58:12;8.90;99.90
7117;DHT22;3600;48.568;7.870;2023-04-25T04:00:39;8.80;99.90
7117;DHT22;3600;48.568;7.870;2023-04-25T04:03:06;8.70;99.90
7117;DHT22;3600;48.568;7.870;2023-04-25T04:05:33;8.70;99.90
7117;DHT22;3600;48.568;7.870;2023-04-25T04:08:00;8.70;99.90
7117;DHT22;3600;48.568;7.870;2023-04-25T04:10:26;8.70;99.90
7117;DHT22;3600;48.568;7.870;2023-04-25T04:12:53;8.90;99.90
7117;DHT22;3600;48.568;7.870;2023-04-25T04:15:20;9.00;99.90
7117;DHT22;3600;48.568;7.870;2023-04-25T04:17:48;8.80;99.90
7117;DHT22;3600;48.568;7.870;2023-04-25T04:20:15;8.70;99.90
7117;DHT22;3600;48.568;7.870;2023-04-25T04:22:42;8.70;99.90
7117;DHT22;3600;48.568;7.870;2023-04-25T04:25:09;8.70;99.90
7117;DHT22;3600;48.568;7.870;2023-04-25T04:27:38;8.60;99.90
7117;DHT22;3600;48.568;7.870;2023-04-25T04:30:07;8.60;99.90
7117;DHT22;3600;48.568;7.870;2023-04-25T04:32:34;8.60;99.90
7117;DHT22;3600;48.568;7.870;2023-04-25T04:35:04;8.60;99.90
7117;DHT22;3600;48.568;7.870;2023-04-25T04:37:33;8.60;99.90
7117;DHT22;3600;48.568;7.870;2023-04-25T04:40:00;8.70;99.90
7117;DHT22;3600;48.568;7.870;2023-04-25T04:42:31;8.70;99.90
7117;DHT22;3600;48.568;7.870;2023-04-25T04:44:58;8.70;99.90
7117;DHT22;3600;48.568;7.870;2023-04-25T04:47:25;8.70;99.90
7117;DHT22;3600;48.568;7.870;2023-04-25T04:49:52;8.70;99.90
7117;DHT22;3600;48.568;7.870;2023-04-25T04:52:19;8.70;99.90
7117;DHT22;3600;48.568;7.870;2023-04-25T04:54:45;8.80;99.90
7117;DHT22;3600;48.568;7.870;2023-04-25T04:57:12;9.00;99.90
7117;DHT22;3600;48.568;7.870;2023-04-25T04:59:39;9.10;99.90
7117;DHT22;3600;48.568;7.870;2023-04-25T05:02:06;9.10;99.90
7117;DHT22;3600;48.568;7.870;2023-04-25T05:04:33;9.20;99.90
7117;DHT22;3600;48.568;7.870;2023-04-25T05:07:00;9.20;99.90
7117;DHT22;3600;48.568;7.870;2023-04-25T05:09:27;9.20;99.90
7117;DHT22;3600;48.568;7.870;2023-04-25T05:11:53;9.20;99.90
7117;DHT22;3600;48.568;7.870;2023-04-25T05:14:20;9.30;99.90
7117;DHT22;3600;48.568;7.870;2023-04-25T05:16:48;9.20;99.90
7117;DHT22;3600;48.568;7.870;2023-04-25T05:19:15;9.20;99.90
7117;DHT22;3600;48.568;7.870;2023-04-25T05:21:42;9.30;99.90
7117;DHT22;3600;48.568;7.870;2023-04-25T05:24:09;9.20;99.90
7117;DHT22;3600;48.568;7.870;2023-04-25T05:26:37;9.20;99.90
7117;DHT22;3600;48.568;7.870;2023-04-25T05:29:04;9.20;99.90
7117;DHT22;3600;48.568;7.870;2023-04-25T05:31:32;9.20;99.90
7117;DHT22;3600;48.568;7.870;2023-04-25T05:33:59;9.20;99.90
7117;DHT22;3600;48.568;7.870;2023-04-25T05:36:26;9.20;99.90
7117;DHT22;3600;48.568;7.870;2023-04-25T05:38:53;9.20;99.90
7117;DHT22;3600;48.568;7.870;2023-04-25T05:41:20;9.20;99.90
7117;DHT22;3600;48.568;7.870;2023-04-25T05:43:47;9.10;99.90
7117;DHT22;3600;48.568;7.870;2023-04-25T05:46:16;8.90;99.90
7117;DHT22;3600;48.568;7.870;2023-04-25T05:48:47;8.80;99.90
7117;DHT22;3600;48.568;7.870;2023-04-25T05:51:13;9.00;99.90
7117;DHT22;3600;48.568;7.870;2023-04-25T05:53:40;9.10;99.90
7117;DHT22;3600;48.568;7.870;2023-04-25T05:56:07;9.10;99.90
7117;DHT22;3600;48.568;7.870;2023-04-25T05:58:34;9.10;99.90
7117;DHT22;3600;48.568;7.870;2023-04-25T06:01:01;9.10;99.90
7117;DHT22;3600;48.568;7.870;2023-04-25T06:03:29;9.00;99.90
7117;DHT22;3600;48.568;7.870;2023-04-25T06:05:57;9.10;99.90
7117;DHT22;3600;48.568;7.870;2023-04-25T06:08:23;9.00;99.90
7117;DHT22;3600;48.568;7.870;2023-04-25T06:10:50;9.00;99.90
7117;DHT22;3600;48.568;7.870;2023-04-25T06:13:17;9.00;99.90
7117;DHT22;3600;48.568;7.870;2023-04-25T06:15:44;9.00;99.90
7117;DHT22;3600;48.568;7.870;2023-04-25T06:18:10;8.70;99.90
7117;DHT22;3600;48.568;7.870;2023-04-25T06:20:37;8.80;99.90
7117;DHT22;3600;48.568;7.870;2023-04-25T06:23:04;8.90;99.90
7117;DHT22;3600;48.568;7.870;2023-04-25T06:25:31;8.90;99.90
7117;DHT22;3600;48.568;7.870;2023-04-25T06:27:58;8.80;99.90
7117;DHT22;3600;48.568;7.870;2023-04-25T06:30:24;8.70;99.90
7117;DHT22;3600;48.568;7.870;2023-04-25T06:32:52;8.70;99.90
7117;DHT22;3600;48.568;7.870;2023-04-25T06:35:22;8.60;99.90
7117;DHT22;3600;48.568;7.870;2023-04-25T06:37:48;8.60;99.90
7117;DHT22;3600;48.568;7.870;2023-04-25T06:40:15;8.50;99.90
7117;DHT22;3600;48.568;7.870;2023-04-25T06:42:43;8.50;99.90
7117;DHT22;3600;48.568;7.870;2023-04-25T06:45:10;8.40;99.90
7117;DHT22;3600;48.568;7.870;2023-04-25T06:47:37;8.40;99.90
7117;DHT22;3600;48.568;7.870;2023-04-25T06:50:05;8.40;99.90
7117;DHT22;3600;48.568;7.870;2023-04-25T06:52:32;8.20;99.90
7117;DHT22;3600;48.568;7.870;2023-04-25T06:54:59;8.10;99.90
7117;DHT22;3600;48.568;7.870;2023-04-25T06:57:26;7.90;99.90
7117;DHT22;3600;48.568;7.870;2023-04-25T06:59:53;8.00;99.90
7117;DHT22;3600;48.568;7.870;2023-04-25T07:02:19;7.80;99.90
7117;DHT22;3600;48.568;7.870;2023-04-25T07:04:48;8.00;99.90
7117;DHT22;3600;48.568;7.870;2023-04-25T07:07:15;7.90;99.90
7117;DHT22;3600;48.568;7.870;2023-04-25T07:09:43;7.90;99.90
7117;DHT22;3600;48.568;7.870;2023-04-25T07:12:10;7.80;99.90
7117;DHT22;3600;48.568;7.870;2023-04-25T07:14:37;8.00;99.90
7117;DHT22;3600;48.568;7.870;2023-04-25T07:17:04;7.90;99.90
7117;DHT22;3600;48.568;7.870;2023-04-25T07:19:35;7.80;99.90
7117;DHT22;3600;48.568;7.870;2023-04-25T07:22:03;7.70;99.90
7117;DHT22;3600;48.568;7.870;2023-04-25T07:24:30;7.70;99.90
7117;DHT22;3600;48.568;7.870;2023-04-25T07:26:58;7.70;99.90
7117;DHT22;3600;48.568;7.870;2023-04-25T07:29:25;7.60;99.90
7117;DHT22;3600;48.568;7.870;2023-04-25T07:31:52;7.60;99.90
7117;DHT22;3600;48.568;7.870;2023-04-25T07:34:19;7.60;99.90
7117;DHT22;3600;48.568;7.870;2023-04-25T07:36:46;7.60;99.90
7117;DHT22;3600;48.568;7.870;2023-04-25T07:39:13;7.70;99.90
7117;DHT22;3600;48.568;7.870;2023-04-25T07:41:39;7.90;99.90
7117;DHT22;3600;48.568;7.870;2023-04-25T07:44:06;7.80;99.90
7117;DHT22;3600;48.568;7.870;2023-04-25T07:46:33;7.90;99.90
7117;DHT22;3600;48.568;7.870;2023-04-25T07:48:59;7.60;99.90
7117;DHT22;3600;48.568;7.870;2023-04-25T07:51:26;7.50;99.90
7117;DHT22;3600;48.568;7.870;2023-04-25T07:53:54;7.50;99.90
7117;DHT22;3600;48.568;7.870;2023-04-25T07:56:21;7.60;99.90
7117;DHT22;3600;48.568;7.870;2023-04-25T07:58:48;7.60;99.90
7117;DHT22;3600;48.568;7.870;2023-04-25T08:01:15;7.50;99.90
7117;DHT22;3600;48.568;7.870;2023-04-25T08:03:43;7.70;99.90
7117;DHT22;3600;48.568;7.870;2023-04-25T08:06:10;7.90;99.90
7117;DHT22;3600;48.568;7.870;2023-04-25T08:08:37;7.50;99.90
7117;DHT22;3600;48.568;7.870;2023-04-25T08:11:04;7.50;99.90
7117;DHT22;3600;48.568;7.870;2023-04-25T08:13:31;7.50;99.90
7117;DHT22;3600;48.568;7.870;2023-04-25T08:15:57;7.70;99.90
7117;DHT22;3600;48.568;7.870;2023-04-25T08:18:24;7.70;99.90
7117;DHT22;3600;48.568;7.870;2023-04-25T08:20:51;7.80;99.90
7117;DHT22;3600;48.568;7.870;2023-04-25T08:23:18;7.80;99.90
7117;DHT22;3600;48.568;7.870;2023-04-25T08:25:45;7.80;99.90
7117;DHT22;3600;48.568;7.870;2023-04-25T08:28:11;7.80;99.90
7117;DHT22;3600;48.568;7.870;2023-04-25T08:30:38;7.90;99.90
7117;DHT22;3600;48.568;7.870;2023-04-25T08:33:05;8.00;99.90
7117;DHT22;3600;48.568;7.870;2023-04-25T08:35:33;8.10;99.90
7117;DHT22;3600;48.568;7.870;2023-04-25T08:37:59;8.20;99.90
7117;DHT22;3600;48.568;7.870;2023-04-25T08:40:28;8.00;99.90
7117;DHT22;3600;48.568;7.870;2023-04-25T08:43:00;8.20;99.90
7117;DHT22;3600;48.568;7.870;2023-04-25T08:45:31;8.20;99.90
7117;DHT22;3600;48.568;7.870;2023-04-25T08:47:59;8.30;99.90
7117;DHT22;3600;48.568;7.870;2023-04-25T08:50:27;8.50;99.90
7117;DHT22;3600;48.568;7.870;2023-04-25T08:52:54;8.50;99.90
7117;DHT22;3600;48.568;7.870;2023-04-25T08:55:25;8.60;99.90
7117;DHT22;3600;48.568;7.870;2023-04-25T08:57:54;8.80;99.90
7117;DHT22;3600;48.568;7.870;2023-04-25T09:00:22;8.80;99.90
7117;DHT22;3600;48.568;7.870;2023-04-25T09:02:49;8.70;99.90
7117;DHT22;3600;48.568;7.870;2023-04-25T09:05:16;8.80;99.90
7117;DHT22;3600;48.568;7.870;2023-04-25T09:07:47;8.90;99.90
7117;DHT22;3600;48.568;7.870;2023-04-25T09:10:16;8.80;99.90
7117;DHT22;3600;48.568;7.870;2023-04-25T09:12:43;8.80;99.90
7117;DHT22;3600;48.568;7.870;2023-04-25T09:15:11;8.90;99.90
7117;DHT22;3600;48.568;7.870;2023-04-25T09:17:45;8.90;99.90
7117;DHT22;3600;48.568;7.870;2023-04-25T09:20:13;8.80;99.90
7117;DHT22;3600;48.568;7.870;2023-04-25T09:22:40;8.80;99.90
7117;DHT22;3600;48.568;7.870;2023-04-25T09:25:11;8.80;99.90
7117;DHT22;3600;48.568;7.870;2023-04-25T09:27:52;8.80;99.90
7117;DHT22;3600;48.568;7.870;2023-04-25T09:30:33;8.80;99.90
7117;DHT22;3600;48.568;7.870;2023-04-25T09:33:07;8.80;99.90
7117;DHT22;3600;48.568;7.870;2023-04-25T09:35:39;8.80;99.90
7117;DHT22;3600;48.568;7.870;2023-04-25T09:38:13;8.80;99.90
7117;DHT22;3600;48.568;7.870;2023-04-25T09:40:45;8.80;99.90
7117;DHT22;3600;48.568;7.870;2023-04-25T09:43:20;8.90;99.90
7117;DHT22;3600;48.568;7.870;2023-04-25T09:45:47;8.90;99.90
7117;DHT22;3600;48.568;7.870;2023-04-25T09:48:21;9.00;99.90
7117;DHT22;3600;48.568;7.870;2023-04-25T09:51:13;9.00;99.90
7117;DHT22;3600;48.568;7.870;2023-04-25T09:53:42;9.00;99.90
7117;DHT22;3600;48.568;7.870;2023-04-25T09:56:11;9.00;99.90
7117;DHT22;3600;48.568;7.870;2023-04-25T09:58:40;9.10;99.90
7117;DHT22;3600;48.568;7.870;2023-04-25T10:01:09;9.10;99.90
7117;DHT22;3600;48.568;7.870;2023-04-25T10:03:37;9.20;99.90
7117;DHT22;3600;48.568;7.870;2023-04-25T10:06:12;9.10;99.90
7117;DHT22;3600;48.568;7.870;2023-04-25T10:08:39;9.10;99.90
7117;DHT22;3600;48.568;7.870;2023-04-25T10:11:08;9.20;99.90
7117;DHT22;3600;48.568;7.870;2023-04-25T10:13:36;9.30;99.90
7117;DHT22;3600;48.568;7.870;2023-04-25T10:16:04;9.20;99.90
7117;DHT22;3600;48.568;7.870;2023-04-25T10:18:32;9.10;99.90
7117;DHT22;3600;48.568;7.870;2023-04-25T10:21:04;9.10;99.90
7117;DHT22;3600;48.568;7.870;2023-04-25T10:23:31;9.10;99.90
7117;DHT22;3600;48.568;7.870;2023-04-25T10:25:58;9.20;99.90
7117;DHT22;3600;48.568;7.870;2023-04-25T10:28:26;9.10;99.90
7117;DHT22;3600;48.568;7.870;2023-04-25T10:31:06;9.10;99.90
7117;DHT22;3600;48.568;7.870;2023-04-25T10:33:35;9.20;99.90
7117;DHT22;3600;48.568;7.870;2023-04-25T10:36:18;9.30;99.90
7117;DHT22;3600;48.568;7.870;2023-04-25T10:38:46;9.40;99.90
7117;DHT22;3600;48.568;7.870;2023-04-25T10:41:13;9.60;99.90
7117;DHT22;3600;48.568;7.870;2023-04-25T10:43:42;9.70;99.90
7117;DHT22;3600;48.568;7.870;2023-04-25T10:46:26;9.70;99.90
7117;DHT22;3600;48.568;7.870;2023-04-25T10:49:00;9.80;99.90
7117;DHT22;3600;48.568;7.870;2023-04-25T10:51:31;10.00;99.90
7117;DHT22;3600;48.568;7.870;2023-04-25T10:54:17;10.20;99.90
7117;DHT22;3600;48.568;7.870;2023-04-25T10:56:44;10.20;99.90
7117;DHT22;3600;48.568;7.870;2023-04-25T10:59:16;10.40;99.90
7117;DHT22;3600;48.568;7.870;2023-04-25T11:01:47;10.60;99.90
7117;DHT22;3600;48.568;7.870;2023-04-25T11:04:20;10.90;99.90
7117;DHT22;3600;48.568;7.870;2023-04-25T11:07:26;11.10;99.90
7117;DHT22;3600;48.568;7.870;2023-04-25T11:09:53;11.10;99.90
7117;DHT22;3600;48.568;7.870;2023-04-25T11:12:20;11.30;99.90
7117;DHT22;3600;48.568;7.870;2023-04-25T11:14:47;11.10;99.90
7117;DHT22;3600;48.568;7.870;2023-04-25T11:17:13;11.00;99.90
7117;DHT22;3600;48.568;7.870;2023-04-25T11:19:40;11.10;99.90
7117;DHT22;3600;48.568;7.870;2023-04-25T11:22:07;11.10;99.90
7117;DHT22;3600;48.568;7.870;2023-04-25T11:24:35;11.10;99.90
7117;DHT22;3600;48.568;7.870;2023-04-25T11:27:03;11.10;99.90
7117;DHT22;3600;48.568;7.870;2023-04-25T11:29:31;11.10;99.90
7117;DHT22;3600;48.568;7.870;2023-04-25T11:31:59;11.10;99.90
7117;DHT22;3600;48.568;7.870;2023-04-25T11:34:28;11.10;99.90
7117;DHT22;3600;48.568;7.870;2023-04-25T11:36:58;10.70;99.90
7117;DHT22;3600;48.568;7.870;2023-04-25T11:39:25;10.80;99.90
7117;DHT22;3600;48.568;7.870;2023-04-25T11:41:53;11.10;99.90
7117;DHT22;3600;48.568;7.870;2023-04-25T11:44:21;11.50;99.90
7117;DHT22;3600;48.568;7.870;2023-04-25T11:46:48;11.50;99.90
7117;DHT22;3600;48.568;7.870;2023-04-25T11:49:15;11.50;99.90
7117;DHT22;3600;48.568;7.870;2023-04-25T11:51:46;11.50;99.90
7117;DHT22;3600;48.568;7.870;2023-04-25T11:54:14;11.50;99.90
7117;DHT22;3600;48.568;7.870;2023-04-25T11:56:44;11.50;99.90
7117;DHT22;3600;48.568;7.870;2023-04-25T11:59:12;11.50;99.90
7117;DHT22;3600;48.568;7.870;2023-04-25T12:01:41;10.70;99.90
7117;DHT22;3600;48.568;7.870;2023-04-25T12:06:40;10.70;99.90
7117;DHT22;3600;48.568;7.870;2023-04-25T12:09:09;11.00;99.90
7117;DHT22;3600;48.568;7.870;2023-04-25T12:11:53;10.60;99.90
7117;DHT22;3600;48.568;7.870;2023-04-25T12:14:22;10.70;99.90
7117;DHT22;3600;48.568;7.870;2023-04-25T12:16:51;10.70;99.90
7117;DHT22;3600;48.568;7.870;2023-04-25T12:19:19;10.90;99.90
7117;DHT22;3600;48.568;7.870;2023-04-25T12:21:47;11.20;99.90
7117;DHT22;3600;48.568;7.870;2023-04-25T12:24:25;11.30;99.90
7117;DHT22;3600;48.568;7.870;2023-04-25T12:29:21;11.30;99.90
7117;DHT22;3600;48.568;7.870;2023-04-25T12:31:49;11.40;99.90
7117;DHT22;3600;48.568;7.870;2023-04-25T12:34:17;11.20;99.90
7117;DHT22;3600;48.568;7.870;2023-04-25T12:36:44;11.10;99.90
7117;DHT22;3600;48.568;7.870;2023-04-25T12:39:22;10.80;99.90
7117;DHT22;3600;48.568;7.870;2023-04-25T12:41:50;10.80;99.90
7117;DHT22;3600;48.568;7.870;2023-04-25T12:44:17;10.70;99.90
7117;DHT22;3600;48.568;7.870;2023-04-25T12:46:44;10.20;99.90
7117;DHT22;3600;48.568;7.870;2023-04-25T12:49:11;8.70;99.90
7117;DHT22;3600;48.568;7.870;2023-04-25T12:51:43;8.00;99.90
7117;DHT22;3600;48.568;7.870;2023-04-25T12:54:09;8.50;99.90
7117;DHT22;3600;48.568;7.870;2023-04-25T12:56:36;8.90;99.90
7117;DHT22;3600;48.568;7.870;2023-04-25T12:59:03;8.80;99.90
7117;DHT22;3600;48.568;7.870;2023-04-25T13:01:30;8.90;99.90
7117;DHT22;3600;48.568;7.870;2023-04-25T13:03:58;9.00;99.90
7117;DHT22;3600;48.568;7.870;2023-04-25T13:06:26;9.20;99.90
7117;DHT22;3600;48.568;7.870;2023-04-25T13:08:53;9.20;99.90
7117;DHT22;3600;48.568;7.870;2023-04-25T13:11:20;9.20;99.90
7117;DHT22;3600;48.568;7.870;2023-04-25T13:13:46;9.40;99.90
7117;DHT22;3600;48.568;7.870;2023-04-25T13:16:13;9.40;99.90
7117;DHT22;3600;48.568;7.870;2023-04-25T13:18:41;9.80;99.90
7117;DHT22;3600;48.568;7.870;2023-04-25T13:21:09;10.00;99.90
7117;DHT22;3600;48.568;7.870;2023-04-25T13:23:37;10.50;99.90
7117;DHT22;3600;48.568;7.870;2023-04-25T13:26:04;10.70;99.90
7117;DHT22;3600;48.568;7.870;2023-04-25T13:28:31;10.30;99.90
7117;DHT22;3600;48.568;7.870;2023-04-25T13:30:57;10.70;99.90
7117;DHT22;3600;48.568;7.870;2023-04-25T13:33:25;11.00;99.90
7117;DHT22;3600;48.568;7.870;2023-04-25T13:35:53;11.00;99.90
7117;DHT22;3600;48.568;7.870;2023-04-25T13:38:24;11.20;99.90
7117;DHT22;3600;48.568;7.870;2023-04-25T13:40:52;10.90;99.90
7117;DHT22;3600;48.568;7.870;2023-04-25T13:43:22;11.50;99.90
7117;DHT22;3600;48.568;7.870;2023-04-25T13:45:50;11.60;99.90
7117;DHT22;3600;48.568;7.870;2023-04-25T13:48:18;11.10;99.90
7117;DHT22;3600;48.568;7.870;2023-04-25T13:50:45;11.10;99.90
7117;DHT22;3600;48.568;7.870;2023-04-25T13:53:12;11.00;99.90
7117;DHT22;3600;48.568;7.870;2023-04-25T13:55:39;11.00;99.90
7117;DHT22;3600;48.568;7.870;2023-04-25T13:58:06;11.00;99.90
7117;DHT22;3600;48.568;7.870;2023-04-25T14:00:38;11.00;99.90
7117;DHT22;3600;48.568;7.870;2023-04-25T14:03:06;11.00;99.90
7117;DHT22;3600;48.568;7.870;2023-04-25T14:05:36;11.20;99.90
7117;DHT22;3600;48.568;7.870;2023-04-25T14:08:08;11.20;99.90
7117;DHT22;3600;48.568;7.870;2023-04-25T14:10:36;10.90;99.90
7117;DHT22;3600;48.568;7.870;2023-04-25T14:13:03;11.00;99.90
7117;DHT22;3600;48.568;7.870;2023-04-25T14:15:34;11.40;99.90
7117;DHT22;3600;48.568;7.870;2023-04-25T14:18:02;11.70;99.90
7117;DHT22;3600;48.568;7.870;2023-04-25T14:20:29;11.90;99.90
7117;DHT22;3600;48.568;7.870;2023-04-25T14:22:55;11.90;99.90
7117;DHT22;3600;48.568;7.870;2023-04-25T14:25:24;12.20;99.90
7117;DHT22;3600;48.568;7.870;2023-04-25T14:27:51;12.00;99.90
7117;DHT22;3600;48.568;7.870;2023-04-25T14:30:20;12.20;99.90
7117;DHT22;3600;48.568;7.870;2023-04-25T14:32:48;12.40;99.90
7117;DHT22;3600;48.568;7.870;2023-04-25T14:35:16;12.60;99.90
7117;DHT22;3600;48.568;7.870;2023-04-25T14:37:43;12.40;99.90
7117;DHT22;3600;48.568;7.870;2023-04-25T14:40:11;12.40;99.90
7117;DHT22;3600;48.568;7.870;2023-04-25T14:42:39;12.60;99.90
7117;DHT22;3600;48.568;7.870;2023-04-25T14:45:07;13.10;99.90
7117;DHT22;3600;48.568;7.870;2023-04-25T14:47:38;13.30;99.90
7117;DHT22;3600;48.568;7.870;2023-04-25T14:50:06;12.90;99.90
7117;DHT22;3600;48.568;7.870;2023-04-25T14:52:33;12.30;99.90
7117;DHT22;3600;48.568;7.870;2023-04-25T14:55:00;11.80;99.90
7117;DHT22;3600;48.568;7.870;2023-04-25T14:57:32;11.90;99.90
7117;DHT22;3600;48.568;7.870;2023-04-25T14:59:59;12.10;99.90
7117;DHT22;3600;48.568;7.870;2023-04-25T15:02:27;12.90;99.90
7117;DHT22;3600;48.568;7.870;2023-04-25T15:04:54;13.50;99.90
7117;DHT22;3600;48.568;7.870;2023-04-25T15:07:22;14.10;99.90
7117;DHT22;3600;48.568;7.870;2023-04-25T15:09:49;14.60;99.90
7117;DHT22;3600;48.568;7.870;2023-04-25T15:12:16;14.90;99.90
7117;DHT22;3600;48.568;7.870;2023-04-25T15:14:43;14.30;99.90
7117;DHT22;3600;48.568;7.870;2023-04-25T15:17:10;14.50;99.90
7117;DHT22;3600;48.568;7.870;2023-04-25T15:19:39;14.10;99.90
7117;DHT22;3600;48.568;7.870;2023-04-25T15:22:06;13.60;99.90
7117;DHT22;3600;48.568;7.870;2023-04-25T15:24:33;13.70;99.90
7117;DHT22;3600;48.568;7.870;2023-04-25T15:27:00;13.90;99.90
7117;DHT22;3600;48.568;7.870;2023-04-25T15:29:27;14.00;99.90
7117;DHT22;3600;48.568;7.870;2023-04-25T15:31:55;13.40;99.90
7117;DHT22;3600;48.568;7.870;2023-04-25T15:34:22;13.00;99.90
7117;DHT22;3600;48.568;7.870;2023-04-25T15:36:49;12.60;99.90
7117;DHT22;3600;48.568;7.870;2023-04-25T15:39:15;12.90;99.90
7117;DHT22;3600;48.568;7.870;2023-04-25T15:41:43;13.30;99.90
7117;DHT22;3600;48.568;7.870;2023-04-25T15:44:10;13.00;99.90
7117;DHT22;3600;48.568;7.870;2023-04-25T15:46:37;12.60;99.90
7117;DHT22;3600;48.568;7.870;2023-04-25T15:49:04;12.10;99.90
7117;DHT22;3600;48.568;7.870;2023-04-25T15:51:31;12.20;99.90
7117;DHT22;3600;48.568;7.870;2023-04-25T15:53:59;12.20;99.90
7117;DHT22;3600;48.568;7.870;2023-04-25T15:56:28;12.20;99.90
7117;DHT22;3600;48.568;7.870;2023-04-25T15:58:55;12.00;99.90
7117;DHT22;3600;48.568;7.870;2023-04-25T16:01:22;12.10;99.90
7117;DHT22;3600;48.568;7.870;2023-04-25T16:03:51;11.90;99.90
7117;DHT22;3600;48.568;7.870;2023-04-25T16:06:19;11.70;99.90
7117;DHT22;3600;48.568;7.870;2023-04-25T16:08:46;11.90;99.90
7117;DHT22;3600;48.568;7.870;2023-04-25T16:11:13;11.80;99.90
7117;DHT22;3600;48.568;7.870;2023-04-25T16:13:40;11.40;99.90
7117;DHT22;3600;48.568;7.870;2023-04-25T16:16:07;11.20;99.90
7117;DHT22;3600;48.568;7.870;2023-04-25T16:18:34;11.40;99.90
7117;DHT22;3600;48.568;7.870;2023-04-25T16:21:01;11.20;99.90
7117;DHT22;3600;48.568;7.870;2023-04-25T16:23:28;10.80;99.90